createdAt,value
2019-06-07T00:00:58.938Z,101178.55
2019-06-07T00:03:32.026Z,101181.59
2019-06-07T00:06:06.912Z,101190.23
2019-06-07T00:08:39.643Z,101180.50
2019-06-07T00:11:15.614Z,101184.92
2019-06-07T00:13:47.493Z,101181.89
2019-06-07T00:16:23.215Z,101190.05
2019-06-07T00:18:55.180Z,101184.67
2019-06-07T00:22:13.032Z,101189.03
2019-06-07T00:24:02.797Z,101184.09
2019-06-07T00:26:56.468Z,101191.52
2019-06-07T00:29:13.915Z,101179.87
2019-06-07T00:31:45.241Z,101184.67
2019-06-07T00:34:20.066Z,101185.59
2019-06-07T00:36:53.060Z,101182.62
2019-06-07T00:39:26.410Z,101179.83
2019-06-07T00:41:59.549Z,101176.48
2019-06-07T00:44:32.750Z,101177.03
2019-06-07T00:47:05.842Z,101172.59
2019-06-07T00:49:41.506Z,101173.72
2019-06-07T00:52:58.565Z,101174.17
2019-06-07T00:54:47.979Z,101174.00
2019-06-07T00:57:22.161Z,101180.05
2019-06-07T00:59:55.693Z,101174.77
2019-06-07T01:02:31.351Z,101168.20
2019-06-07T01:05:03.718Z,101161.73
2019-06-07T01:07:36.809Z,101161.38
2019-06-07T01:10:13.842Z,101160.15
2019-06-07T01:12:47.550Z,101153.73
2019-06-07T01:15:28.537Z,101154.69
2019-06-07T01:18:33.551Z,101152.63
2019-06-07T01:20:33.521Z,101154.56
2019-06-07T01:23:51.920Z,101161.34
2019-06-07T01:25:41.395Z,101167.76
2019-06-07T01:28:16.607Z,101168.29
2019-06-07T01:30:49.369Z,101168.56
2019-06-07T01:33:25.693Z,101170.20
2019-06-07T01:35:57.292Z,101167.11
2019-06-07T01:38:30.595Z,101173.84
2019-06-07T01:41:03.679Z,101173.86
2019-06-07T01:43:36.771Z,101175.92
2019-06-07T01:46:09.759Z,101180.88
2019-06-07T01:48:49.318Z,101186.03
2019-06-07T01:51:18.938Z,101183.81
2019-06-07T01:54:41.498Z,101189.13
2019-06-07T01:56:29.603Z,101182.66
2019-06-07T01:59:01.965Z,101187.18
2019-06-07T02:01:35.606Z,101188.27
2019-06-07T02:04:08.557Z,101188.78
2019-06-07T02:06:41.750Z,101195.12
2019-06-07T02:09:14.845Z,101194.38
2019-06-07T02:11:47.934Z,101192.45
2019-06-07T02:14:25.346Z,101185.10
2019-06-07T02:16:55.785Z,101187.61
2019-06-07T02:19:31.701Z,101195.25
2019-06-07T02:22:03.511Z,101190.75
2019-06-07T02:24:37.406Z,101193.19
2019-06-07T02:27:10.679Z,101193.48
2019-06-07T02:29:43.872Z,101192.73
2019-06-07T02:32:17.173Z,101196.34
2019-06-07T02:34:50.362Z,101193.03
2019-06-07T02:37:26.353Z,101196.50
2019-06-07T02:39:58.404Z,101198.63
2019-06-07T02:42:38.949Z,101195.83
2019-06-07T02:45:07.380Z,101200.31
2019-06-07T02:47:41.138Z,101201.92
2019-06-07T02:50:14.230Z,101205.06
2019-06-07T02:52:49.094Z,101195.60
2019-06-07T02:55:24.868Z,101203.92
2019-06-07T02:57:57.188Z,101188.18
2019-06-07T03:01:09.037Z,101192.30
2019-06-07T03:03:24.962Z,101192.86
2019-06-07T03:05:58.160Z,101188.17
2019-06-07T03:08:33.647Z,101194.47
2019-06-07T03:11:06.078Z,101191.16
2019-06-07T03:13:41.019Z,101196.65
2019-06-07T03:16:16.050Z,101196.46
2019-06-07T03:18:53.845Z,101197.96
2019-06-07T03:21:29.534Z,101200.80
2019-06-07T03:24:03.411Z,101197.56
2019-06-07T03:27:31.404Z,101199.50
2019-06-07T03:29:11.432Z,101197.86
2019-06-07T03:31:47.755Z,101200.22
2019-06-07T03:34:19.148Z,101192.95
2019-06-07T03:36:52.136Z,101193.88
2019-06-07T03:39:28.015Z,101188.02
2019-06-07T03:42:06.331Z,101187.56
2019-06-07T03:44:36.383Z,101189.47
2019-06-07T03:47:09.623Z,101191.80
2019-06-07T03:49:42.943Z,101197.36
2019-06-07T03:52:16.005Z,101192.09
2019-06-07T03:54:50.226Z,101186.37
2019-06-07T03:57:23.417Z,101188.50
2019-06-07T03:59:56.722Z,101191.81
2019-06-07T04:02:30.391Z,101194.55
2019-06-07T04:05:04.945Z,101198.27
2019-06-07T04:07:43.740Z,101196.13
2019-06-07T04:10:13.274Z,101198.61
2019-06-07T04:12:46.362Z,101198.48
2019-06-07T04:15:19.563Z,101198.76
2019-06-07T04:18:01.804Z,101193.61
2019-06-07T04:20:29.376Z,101197.92
2019-06-07T04:23:02.209Z,101183.27
2019-06-07T04:25:39.349Z,101184.89
2019-06-07T04:28:10.132Z,101188.17
2019-06-07T04:30:44.502Z,101191.34
2019-06-07T04:33:17.336Z,101191.11
2019-06-07T04:35:50.539Z,101191.84
2019-06-07T04:38:23.517Z,101199.48
2019-06-07T04:40:57.020Z,101197.19
2019-06-07T04:43:31.329Z,101203.13
2019-06-07T04:46:05.046Z,101200.39
2019-06-07T04:48:41.811Z,101205.95
2019-06-07T04:51:14.479Z,101201.61
2019-06-07T04:53:47.981Z,101202.27
2019-06-07T04:56:20.991Z,101199.28
2019-06-07T04:58:54.837Z,101188.25
2019-06-07T05:01:30.629Z,101195.60
2019-06-07T05:04:02.527Z,101202.95
2019-06-07T05:06:37.388Z,101202.98
2019-06-07T05:09:10.290Z,101200.36
2019-06-07T05:11:45.121Z,101193.56
2019-06-07T05:14:17.909Z,101194.63
2019-06-07T05:16:51.020Z,101196.25
2019-06-07T05:19:24.110Z,101196.53
2019-06-07T05:22:04.117Z,101197.95
2019-06-07T05:24:36.529Z,101204.92
2019-06-07T05:27:06.574Z,101202.67
2019-06-07T05:29:41.625Z,101208.03
2019-06-07T05:32:14.476Z,101208.23
2019-06-07T05:34:47.687Z,101207.47
2019-06-07T05:37:20.659Z,101205.50
2019-06-07T05:39:54.778Z,101206.96
2019-06-07T05:42:27.636Z,101208.09
2019-06-07T05:45:00.572Z,101204.02
2019-06-07T05:47:38.453Z,101207.47
2019-06-07T05:50:37.966Z,101214.69
2019-06-07T05:52:47.315Z,101215.20
2019-06-07T05:55:18.629Z,101215.26
2019-06-07T05:57:51.457Z,101219.38
2019-06-07T06:00:25.298Z,101216.11
2019-06-07T06:03:05.415Z,101216.20
2019-06-07T06:05:37.620Z,101223.84
2019-06-07T06:08:07.491Z,101223.84
2019-06-07T06:10:44.802Z,101218.39
2019-06-07T06:13:14.993Z,101226.34
2019-06-07T06:16:00.437Z,101223.87
2019-06-07T06:18:22.712Z,101218.30
2019-06-07T06:21:15.461Z,101230.64
2019-06-07T06:23:30.240Z,101225.01
2019-06-07T06:26:03.196Z,101231.53
2019-06-07T06:28:38.271Z,101235.80
2019-06-07T06:31:11.226Z,101237.15
2019-06-07T06:33:45.267Z,101238.23
2019-06-07T06:36:19.087Z,101236.58
2019-06-07T06:38:52.238Z,101236.41
2019-06-07T06:41:25.140Z,101240.27
2019-06-07T06:43:58.092Z,101236.59
2019-06-07T06:46:38.501Z,101227.23
2019-06-07T06:49:05.532Z,101231.77
2019-06-07T06:51:39.267Z,101231.36
2019-06-07T06:54:14.238Z,101231.30
2019-06-07T06:56:49.694Z,101231.61
2019-06-07T06:59:38.176Z,101236.84
2019-06-07T07:01:57.509Z,101233.46
2019-06-07T07:04:30.456Z,101234.91
2019-06-07T07:07:03.275Z,101232.58
2019-06-07T07:09:36.613Z,101236.70
2019-06-07T07:12:12.565Z,101236.34
2019-06-07T07:14:45.975Z,101244.74
2019-06-07T07:17:18.261Z,101241.91
2019-06-07T07:19:53.048Z,101233.19
2019-06-07T07:22:25.535Z,101239.16
2019-06-07T07:24:58.604Z,101235.00
2019-06-07T07:27:31.419Z,101238.93
2019-06-07T07:30:35.401Z,101238.41
2019-06-07T07:32:45.070Z,101230.42
2019-06-07T07:35:15.883Z,101236.21
2019-06-07T07:37:54.009Z,101232.48
2019-06-07T07:42:57.775Z,101224.02
2019-06-07T07:45:30.898Z,101224.72
2019-06-07T07:48:15.695Z,101230.94
2019-06-07T07:50:38.541Z,101239.49
2019-06-07T07:53:11.438Z,101240.47
2019-06-07T07:55:45.062Z,101239.84
2019-06-07T07:58:19.164Z,101236.72
2019-06-07T08:01:00.370Z,101228.08
2019-06-07T08:03:26.847Z,101236.50
2019-06-07T08:06:00.346Z,101225.31
2019-06-07T08:08:33.457Z,101232.73
2019-06-07T08:11:06.435Z,101233.14
2019-06-07T08:13:39.511Z,101240.25
2019-06-07T08:16:16.511Z,101246.86
2019-06-07T08:18:50.928Z,101245.53
2019-06-07T08:21:26.312Z,101248.27
2019-06-07T08:24:00.607Z,101244.67
2019-06-07T08:26:30.790Z,101243.45
2019-06-07T08:29:03.724Z,101243.30
2019-06-07T08:31:38.874Z,101245.05
2019-06-07T08:34:11.821Z,101239.56
2019-06-07T08:36:44.836Z,101237.00
2019-06-07T08:39:18.002Z,101228.32
2019-06-07T08:41:59.823Z,101228.73
2019-06-07T08:44:25.936Z,101224.96
2019-06-07T08:47:16.656Z,101218.62
2019-06-07T08:49:33.669Z,101222.91
2019-06-07T08:52:11.971Z,101214.41
2019-06-07T08:54:41.005Z,101206.16
2019-06-07T08:57:21.190Z,101207.20
2019-06-07T08:59:49.220Z,101202.30
2019-06-07T09:02:24.073Z,101201.81
2019-06-07T09:04:59.386Z,101206.84
2019-06-07T09:07:30.526Z,101208.78
2019-06-07T09:10:12.786Z,101210.97
2019-06-07T09:12:42.991Z,101202.09
2019-06-07T09:15:23.556Z,101206.66
2019-06-07T09:20:37.017Z,101210.12
2019-06-07T09:23:15.465Z,101198.89
2019-06-07T09:25:55.936Z,101192.68
2019-06-07T09:28:19.343Z,101191.97
2019-06-07T09:30:47.654Z,101182.98
2019-06-07T09:33:20.741Z,101180.04
2019-06-07T09:35:53.590Z,101188.89
2019-06-07T09:38:27.081Z,101189.45
2019-06-07T09:41:02.428Z,101185.70
2019-06-07T09:46:14.908Z,101195.66
2019-06-07T09:51:20.862Z,101201.02
2019-06-07T09:53:53.970Z,101199.29
2019-06-07T09:56:27.417Z,101198.75
2019-06-07T09:59:06.049Z,101199.56
2019-06-07T10:01:35.019Z,101193.23
2019-06-07T10:04:21.955Z,101191.44
2019-06-07T10:06:43.983Z,101199.11
2019-06-07T10:11:51.200Z,101212.89
2019-06-07T10:14:23.957Z,101212.55
2019-06-07T10:16:56.909Z,101220.83
2019-06-07T10:19:29.930Z,101214.83
2019-06-07T10:22:03.387Z,101215.84
2019-06-07T10:24:36.422Z,101215.75
2019-06-07T10:27:10.032Z,101213.49
2019-06-07T10:29:43.003Z,101209.46
2019-06-07T10:32:16.107Z,101192.09
2019-06-07T10:34:49.405Z,101200.13
2019-06-07T10:37:22.493Z,101194.71
2019-06-07T10:39:55.553Z,101192.35
2019-06-07T10:42:28.574Z,101193.06
2019-06-07T10:45:02.970Z,101184.86
2019-06-07T10:47:35.802Z,101181.01
2019-06-07T10:50:08.571Z,101180.86
2019-06-07T10:52:41.566Z,101184.13
2019-06-07T10:55:14.615Z,101191.27
2019-06-07T10:57:47.740Z,101178.08
2019-06-07T11:00:20.782Z,101173.09
2019-06-07T11:02:55.235Z,101178.27
2019-06-07T11:05:28.748Z,101169.19
2019-06-07T11:08:01.785Z,101173.79
2019-06-07T11:10:34.829Z,101173.66
2019-06-07T11:13:08.811Z,101173.38
2019-06-07T11:15:41.929Z,101182.12
2019-06-07T11:18:14.917Z,101182.37
2019-06-07T11:20:48.084Z,101180.61
2019-06-07T11:23:22.435Z,101181.65
2019-06-07T11:25:55.829Z,101183.54
2019-06-07T11:28:28.939Z,101183.23
2019-06-07T11:31:02.026Z,101187.14
2019-06-07T11:33:35.249Z,101188.73
2019-06-07T11:36:08.559Z,101178.41
2019-06-07T11:38:41.712Z,101171.79
2019-06-07T11:41:15.875Z,101180.62
2019-06-07T11:43:49.826Z,101167.91
2019-06-07T11:46:22.815Z,101162.02
2019-06-07T11:48:55.957Z,101160.78
2019-06-07T11:51:30.398Z,101161.98
2019-06-07T11:54:03.630Z,101165.28
2019-06-07T11:56:37.676Z,101167.13
2019-06-07T11:59:11.185Z,101159.63
2019-06-07T12:01:44.538Z,101166.66
2019-06-07T12:04:33.718Z,101156.48
2019-06-07T12:06:52.050Z,101155.23
2019-06-07T12:09:28.054Z,101154.33
2019-06-07T12:11:59.863Z,101149.06
2019-06-07T12:14:32.859Z,101154.09
2019-06-07T12:17:05.954Z,101151.06
2019-06-07T12:19:39.036Z,101145.14
2019-06-07T12:22:12.128Z,101137.52
2019-06-07T12:24:45.119Z,101130.62
2019-06-07T12:27:18.721Z,101134.02
2019-06-07T12:29:51.809Z,101121.41
2019-06-07T12:32:24.899Z,101123.05
2019-06-07T12:34:58.100Z,101121.77
2019-06-07T12:37:43.284Z,101123.32
2019-06-07T12:40:09.018Z,101116.17
2019-06-07T12:42:42.385Z,101118.03
2019-06-07T12:45:35.266Z,101117.86
2019-06-07T12:47:50.309Z,101117.97
2019-06-07T12:50:25.295Z,101114.41
2019-06-07T12:52:57.974Z,101109.11
2019-06-07T12:55:31.011Z,101108.52
2019-06-07T12:58:04.079Z,101097.78
2019-06-07T13:00:38.013Z,101095.34
2019-06-07T13:03:11.178Z,101088.22
2019-06-07T13:05:44.196Z,101076.73
2019-06-07T13:08:17.636Z,101073.67
2019-06-07T13:10:50.788Z,101082.33
2019-06-07T13:13:24.572Z,101067.69
2019-06-07T13:15:58.025Z,101076.41
2019-06-07T13:18:31.085Z,101079.44
2019-06-07T13:21:04.177Z,101078.73
2019-06-07T13:23:37.384Z,101075.11
2019-06-07T13:26:10.459Z,101085.11
2019-06-07T13:28:43.452Z,101079.81
2019-06-07T13:31:16.654Z,101074.73
2019-06-07T13:33:50.553Z,101075.61
2019-06-07T13:36:24.420Z,101081.95
2019-06-07T13:38:57.557Z,101096.34
2019-06-07T13:41:42.025Z,101101.92
2019-06-07T13:44:05.374Z,101106.44
2019-06-07T13:46:38.472Z,101088.28
2019-06-07T13:49:11.560Z,101087.44
2019-06-07T13:51:44.657Z,101086.59
2019-06-07T13:54:18.553Z,101074.11
2019-06-07T13:57:01.959Z,101079.42
2019-06-07T13:59:26.479Z,101073.55
2019-06-07T14:01:59.468Z,101089.02
2019-06-07T14:04:32.590Z,101092.47
2019-06-07T14:07:05.444Z,101068.80
2019-06-07T14:09:38.563Z,101065.59
2019-06-07T14:12:11.868Z,101059.31
2019-06-07T14:14:44.848Z,101050.49
2019-06-07T14:17:17.754Z,101046.92
2019-06-07T14:19:50.618Z,101067.50
2019-06-07T14:22:24.735Z,101074.88
2019-06-07T14:24:57.734Z,101074.09
2019-06-07T14:27:31.904Z,101071.69
2019-06-07T14:30:08.219Z,101074.99
2019-06-07T14:32:41.314Z,101074.99
2019-06-07T14:35:14.393Z,101093.55
2019-06-07T14:37:47.583Z,101103.19
2019-06-07T14:40:21.081Z,101104.91
2019-06-07T14:42:54.274Z,101105.58
2019-06-07T14:45:27.743Z,101108.16
2019-06-07T14:48:00.808Z,101092.48
2019-06-07T14:50:34.515Z,101087.18
2019-06-07T14:53:07.663Z,101077.13
2019-06-07T14:55:40.858Z,101084.22
2019-06-07T14:58:14.154Z,101088.22
2019-06-07T15:00:47.142Z,101092.41
2019-06-07T15:03:20.336Z,101090.37
2019-06-07T15:05:53.529Z,101083.45
2019-06-07T15:08:26.606Z,101078.62
2019-06-07T15:10:59.813Z,101070.32
2019-06-07T15:13:33.569Z,101066.06
2019-06-07T15:16:06.927Z,101074.80
2019-06-07T15:18:40.023Z,101082.04
2019-06-07T15:21:13.101Z,101079.46
2019-06-07T15:23:46.301Z,101087.66
2019-06-07T15:26:19.283Z,101081.36
2019-06-07T15:28:52.476Z,101087.45
2019-06-07T15:31:27.877Z,101084.91
2019-06-07T15:34:01.905Z,101095.59
2019-06-07T15:36:34.937Z,101093.66
2019-06-07T15:39:08.330Z,101088.16
2019-06-07T15:41:42.231Z,101088.50
2019-06-07T15:44:15.432Z,101076.59
2019-06-07T15:46:48.517Z,101072.89
2019-06-07T15:49:21.710Z,101074.83
2019-06-07T15:51:54.936Z,101076.41
2019-06-07T15:54:28.098Z,101078.02
2019-06-07T15:57:01.289Z,101075.30
2019-06-07T15:59:35.840Z,101073.98
2019-06-07T16:02:08.903Z,101064.02
2019-06-07T16:04:42.248Z,101067.42
2019-06-07T16:07:16.212Z,101059.51
2019-06-07T16:09:49.416Z,101057.99
2019-06-07T16:12:22.602Z,101053.91
2019-06-07T16:14:55.693Z,101048.65
2019-06-07T16:17:28.783Z,101049.45
2019-06-07T16:20:01.981Z,101049.64
2019-06-07T16:22:35.771Z,101056.91
2019-06-07T16:25:08.880Z,101064.02
2019-06-07T16:27:42.803Z,101063.68
2019-06-07T16:30:17.413Z,101063.31
2019-06-07T16:32:50.505Z,101074.78
2019-06-07T16:35:24.517Z,101078.95
2019-06-07T16:37:57.705Z,101076.17
2019-06-07T16:40:30.801Z,101073.41
2019-06-07T16:43:16.997Z,101079.81
2019-06-07T16:45:38.694Z,101076.06
2019-06-07T16:48:11.609Z,101074.78
2019-06-07T16:50:45.190Z,101081.03
2019-06-07T16:53:18.410Z,101078.00
2019-06-07T16:55:51.702Z,101093.89
2019-06-07T16:58:25.609Z,101094.96
2019-06-07T17:00:58.907Z,101091.13
2019-06-07T17:03:32.001Z,101084.91
2019-06-07T17:06:05.194Z,101087.38
2019-06-07T17:08:38.184Z,101097.69
2019-06-07T17:11:11.383Z,101093.94
2019-06-07T17:13:44.564Z,101097.83
2019-06-07T17:16:17.663Z,101091.61
2019-06-07T17:18:50.850Z,101086.16
2019-06-07T17:21:24.146Z,101097.61
2019-06-07T17:23:57.241Z,101092.70
2019-06-07T17:26:30.640Z,101090.19
2019-06-07T17:29:03.831Z,101094.39
2019-06-07T17:31:36.720Z,101099.16
2019-06-07T17:34:09.909Z,101099.04
2019-06-07T17:36:44.916Z,101106.22
2019-06-07T17:39:17.245Z,101097.39
2019-06-07T17:42:01.070Z,101098.58
2019-06-07T17:44:24.835Z,101108.71
2019-06-07T17:46:57.824Z,101112.16
2019-06-07T17:49:31.024Z,101110.32
2019-06-07T17:52:04.417Z,101105.88
2019-06-07T17:54:37.815Z,101106.56
2019-06-07T17:57:10.801Z,101111.05
2019-06-07T17:59:44.367Z,101108.90
2019-06-07T18:02:17.292Z,101114.22
2019-06-07T18:04:51.356Z,101114.34
2019-06-07T18:07:24.294Z,101119.70
2019-06-07T18:09:57.490Z,101118.35
2019-06-07T18:12:30.846Z,101125.52
2019-06-07T18:15:08.807Z,101121.11
2019-06-07T18:17:41.677Z,101129.84
2019-06-07T18:20:14.664Z,101127.14
2019-06-07T18:22:48.875Z,101126.21
2019-06-07T18:25:21.975Z,101124.66
2019-06-07T18:27:55.167Z,101138.53
2019-06-07T18:30:28.358Z,101140.00
2019-06-07T18:33:01.243Z,101139.27
2019-06-07T18:35:34.439Z,101144.19
2019-06-07T18:38:10.592Z,101144.92
2019-06-07T18:40:42.872Z,101149.46
2019-06-07T18:43:15.757Z,101156.28
2019-06-07T18:45:49.319Z,101151.69
2019-06-07T18:48:22.556Z,101156.19
2019-06-07T18:50:55.747Z,101161.50
2019-06-07T18:53:28.944Z,101156.05
2019-06-07T18:56:01.965Z,101161.16
2019-06-07T18:58:35.125Z,101165.22
2019-06-07T19:01:08.115Z,101159.37
2019-06-07T19:03:41.205Z,101155.34
2019-06-07T19:06:14.431Z,101154.79
2019-06-07T19:08:48.426Z,101155.66
2019-06-07T19:11:22.016Z,101158.56
2019-06-07T19:13:55.216Z,101164.08
2019-06-07T19:16:28.502Z,101165.34
2019-06-07T19:19:01.799Z,101165.77
2019-06-07T19:21:35.096Z,101165.81
2019-06-07T19:24:08.494Z,101168.69
2019-06-07T19:26:41.796Z,101163.48
2019-06-07T19:29:14.881Z,101168.33
2019-06-07T19:31:48.090Z,101169.59
2019-06-07T19:34:21.063Z,101180.75
2019-06-07T19:36:54.153Z,101174.11
2019-06-07T19:39:27.247Z,101177.59
2019-06-07T19:42:00.335Z,101200.33
2019-06-07T19:44:33.529Z,101198.43
2019-06-07T19:47:06.622Z,101185.53
2019-06-07T19:49:39.815Z,101182.58
2019-06-07T19:52:12.906Z,101183.05
2019-06-07T19:54:46.018Z,101193.56
2019-06-07T19:57:19.297Z,101186.31
2019-06-07T19:59:53.381Z,101189.55
2019-06-07T20:02:26.419Z,101193.86
2019-06-07T20:05:03.176Z,101196.52
2019-06-07T20:07:34.111Z,101200.59
2019-06-07T20:10:07.827Z,101192.14
2019-06-07T20:12:41.130Z,101201.45
2019-06-07T20:15:27.807Z,101202.70
2019-06-07T20:17:49.035Z,101203.13
2019-06-07T20:20:23.990Z,101204.41
2019-06-07T20:22:56.929Z,101199.41
2019-06-07T20:25:30.066Z,101194.20
2019-06-07T20:28:03.432Z,101194.80
2019-06-07T20:30:36.745Z,101201.30
2019-06-07T20:33:09.847Z,101196.86
2019-06-07T20:35:42.932Z,101193.48
2019-06-07T20:38:16.126Z,101193.48
2019-06-07T20:40:50.338Z,101204.99
2019-06-07T20:43:23.431Z,101196.55
2019-06-07T20:46:00.198Z,101197.55
2019-06-07T20:48:31.351Z,101189.30
2019-06-07T20:51:04.688Z,101194.14
2019-06-07T20:53:37.845Z,101191.11
2019-06-07T20:56:11.032Z,101187.89
2019-06-07T20:58:44.022Z,101178.63
2019-06-07T21:01:17.218Z,101186.89
2019-06-07T21:03:50.411Z,101178.05
2019-06-07T21:06:23.505Z,101176.44
2019-06-07T21:08:56.696Z,101177.64
2019-06-07T21:11:29.895Z,101185.11
2019-06-07T21:14:04.095Z,101190.34
2019-06-07T21:16:37.198Z,101184.28
2019-06-07T21:19:10.486Z,101181.90
2019-06-07T21:21:43.585Z,101188.55
2019-06-07T21:24:16.679Z,101180.09
2019-06-07T21:26:53.121Z,101180.89
2019-06-07T21:29:24.291Z,101183.91
2019-06-07T21:31:58.406Z,101180.47
2019-06-07T21:34:31.399Z,101180.47
2019-06-07T21:37:05.641Z,101188.52
2019-06-07T21:39:38.606Z,101184.67
2019-06-07T21:42:12.349Z,101188.30
2019-06-07T21:44:45.396Z,101184.67
2019-06-07T21:47:18.596Z,101190.52
2019-06-07T21:49:51.989Z,101185.87
2019-06-07T21:52:25.103Z,101191.91
2019-06-07T21:54:58.274Z,101186.87
2019-06-07T21:57:31.466Z,101199.94
2019-06-07T22:00:07.311Z,101198.95
2019-06-07T22:02:42.053Z,101198.09
2019-06-07T22:05:15.082Z,101193.05
2019-06-07T22:07:48.335Z,101196.26
2019-06-07T22:10:21.427Z,101190.41
2019-06-07T22:12:54.519Z,101188.15
2019-06-07T22:15:33.949Z,101200.40
2019-06-07T22:18:02.342Z,101187.34
2019-06-07T22:20:35.635Z,101196.04
2019-06-07T22:23:10.618Z,101186.60
2019-06-07T22:25:43.558Z,101190.20
2019-06-07T22:28:18.515Z,101181.56
2019-06-07T22:30:51.485Z,101181.70
2019-06-07T22:33:24.571Z,101181.70
2019-06-07T22:35:57.681Z,101181.48
2019-06-07T22:38:30.750Z,101181.27
2019-06-07T22:41:03.841Z,101183.48
2019-06-07T22:43:36.833Z,101182.29
2019-06-07T22:46:10.843Z,101182.23
2019-06-07T22:48:43.738Z,101179.59
2019-06-07T22:51:18.314Z,101176.37
2019-06-07T22:53:51.349Z,101174.76
2019-06-07T22:56:35.185Z,101191.66
2019-06-07T22:59:12.307Z,101183.00
2019-06-07T23:01:43.207Z,101181.63
2019-06-07T23:04:16.688Z,101169.77
2019-06-07T23:06:49.912Z,101165.33
2019-06-07T23:09:22.997Z,101171.73
2019-06-07T23:11:56.184Z,101168.68
2019-06-07T23:14:29.276Z,101166.08
2019-06-07T23:17:02.477Z,101178.53
2019-06-07T23:19:35.564Z,101175.88
2019-06-07T23:22:09.909Z,101176.47
2019-06-07T23:24:43.078Z,101183.11
2019-06-07T23:27:16.419Z,101188.52
2019-06-07T23:29:49.676Z,101184.09
2019-06-07T23:32:23.077Z,101189.69
2019-06-07T23:34:56.159Z,101188.67
2019-06-07T23:37:29.264Z,101192.91
2019-06-07T23:40:02.446Z,101189.48
2019-06-07T23:42:36.669Z,101190.27
2019-06-07T23:45:11.874Z,101185.04
2019-06-07T23:47:44.787Z,101184.88
2019-06-07T23:50:17.979Z,101184.42
2019-06-07T23:52:50.967Z,101188.19
2019-06-07T23:55:24.058Z,101175.70
2019-06-07T23:57:57.150Z,101177.91
